createdAt,value
2023-10-07T00:02:18.676Z,4.57
2023-10-07T00:04:46.245Z,4.80
2023-10-07T00:07:13.791Z,5.38
2023-10-07T00:09:44.919Z,4.75
2023-10-07T00:12:17.248Z,5.20
2023-10-07T00:14:45.123Z,5.68
2023-10-07T00:17:19.018Z,6.32
2023-10-07T00:19:47.505Z,5.80
2023-10-07T00:22:17.628Z,6.20
2023-10-07T00:24:46.733Z,5.70
2023-10-07T00:27:31.504Z,3.92
2023-10-07T00:30:00.434Z,5.50
2023-10-07T00:32:29.211Z,6.30
2023-10-07T00:34:56.817Z,4.57
2023-10-07T00:37:25.309Z,7.07
2023-10-07T00:39:53.449Z,7.53
2023-10-07T00:42:20.779Z,6.45
2023-10-07T00:44:54.342Z,4.50
2023-10-07T00:47:22.964Z,5.00
2023-10-07T00:49:50.084Z,6.13
2023-10-07T00:52:45.333Z,6.38
2023-10-07T00:55:19.501Z,5.78
2023-10-07T00:57:55.131Z,5.10
2023-10-07T01:00:27.804Z,7.25
2023-10-07T01:03:07.487Z,7.28
2023-10-07T01:05:36.929Z,5.45
2023-10-07T01:08:07.471Z,4.78
2023-10-07T01:10:39.708Z,7.32
2023-10-07T01:13:25.418Z,9.65
2023-10-07T01:15:54.835Z,8.52
2023-10-07T01:18:23.010Z,7.90
2023-10-07T01:20:52.476Z,3.63
2023-10-07T01:23:25.907Z,7.88
2023-10-07T01:25:52.677Z,6.30
2023-10-07T01:28:22.082Z,8.18
2023-10-07T01:31:10.672Z,7.85
2023-10-07T01:33:41.480Z,7.05
2023-10-07T01:36:17.671Z,9.68
2023-10-07T01:38:54.490Z,7.22
2023-10-07T01:41:22.635Z,6.32
2023-10-07T01:44:00.365Z,8.35
2023-10-07T01:46:29.619Z,8.98
2023-10-07T01:48:58.583Z,8.93
2023-10-07T01:51:30.477Z,7.97
2023-10-07T01:54:05.157Z,5.95
2023-10-07T01:56:33.077Z,7.57
2023-10-07T01:59:10.987Z,3.83
2023-10-07T02:01:42.652Z,8.65
2023-10-07T02:04:18.509Z,9.38
2023-10-07T02:06:52.821Z,7.75
2023-10-07T02:09:26.997Z,8.18
2023-10-07T02:11:55.297Z,9.02
2023-10-07T02:14:26.915Z,10.02
2023-10-07T02:16:54.374Z,8.73
2023-10-07T02:19:29.014Z,11.68
2023-10-07T02:22:08.550Z,7.72
2023-10-07T02:24:36.436Z,10.70
2023-10-07T02:27:09.645Z,8.85
2023-10-07T02:29:36.431Z,10.10
2023-10-07T02:32:16.113Z,9.52
2023-10-07T02:34:56.378Z,9.13
2023-10-07T02:37:26.941Z,7.78
2023-10-07T02:39:57.593Z,7.70
2023-10-07T02:42:34.031Z,9.63
2023-10-07T02:45:06.773Z,8.82
2023-10-07T02:47:33.861Z,7.75
2023-10-07T02:50:03.944Z,6.28
2023-10-07T02:52:37.766Z,7.55
2023-10-07T02:55:17.703Z,7.43
2023-10-07T02:57:49.049Z,8.40
2023-10-07T03:00:36.460Z,8.85
2023-10-07T03:03:16.309Z,8.48
2023-10-07T03:05:46.947Z,6.72
2023-10-07T03:08:20.983Z,8.82
2023-10-07T03:10:56.094Z,5.70
2023-10-07T03:13:26.006Z,6.65
2023-10-07T03:16:11.221Z,9.15
2023-10-07T03:18:39.587Z,8.38
2023-10-07T03:21:12.819Z,6.75
2023-10-07T03:23:47.430Z,9.48
2023-10-07T03:26:23.184Z,8.38
2023-10-07T03:28:56.946Z,7.05
2023-10-07T03:31:35.616Z,5.43
2023-10-07T03:34:04.814Z,5.88
2023-10-07T03:37:09.808Z,6.93
2023-10-07T03:39:55.204Z,6.40
2023-10-07T03:42:22.415Z,6.63
2023-10-07T03:44:50.710Z,5.90
2023-10-07T03:47:17.833Z,6.63
2023-10-07T03:49:54.304Z,7.15
2023-10-07T03:52:22.137Z,5.35
2023-10-07T03:54:49.484Z,6.60
2023-10-07T03:57:19.899Z,6.65
2023-10-07T03:59:47.594Z,7.90
2023-10-07T04:02:30.196Z,6.45
2023-10-07T04:05:01.561Z,6.93
2023-10-07T04:07:31.100Z,7.18
2023-10-07T04:10:13.947Z,6.88
2023-10-07T04:12:41.289Z,7.55
2023-10-07T04:15:13.916Z,8.20
2023-10-07T04:17:41.379Z,6.43
2023-10-07T04:20:19.619Z,9.27
2023-10-07T04:23:02.689Z,9.30
2023-10-07T04:25:33.202Z,9.68
2023-10-07T04:28:07.753Z,9.68
2023-10-07T04:30:48.513Z,9.88
2023-10-07T04:33:19.184Z,10.82
2023-10-07T04:35:50.422Z,10.32
2023-10-07T04:38:26.160Z,12.57
2023-10-07T04:41:15.656Z,4.38
2023-10-07T04:43:45.342Z,10.98
2023-10-07T04:46:30.934Z,10.48
2023-10-07T04:49:00.170Z,10.60
2023-10-07T04:51:58.543Z,10.25
2023-10-07T04:54:25.323Z,9.52
2023-10-07T04:57:01.819Z,11.30
2023-10-07T04:59:29.948Z,10.15
2023-10-07T05:02:02.840Z,6.72
2023-10-07T05:04:30.050Z,9.73
2023-10-07T05:06:56.861Z,7.22
2023-10-07T05:09:24.410Z,9.35
2023-10-07T05:11:51.769Z,10.55
2023-10-07T05:14:23.779Z,8.65
2023-10-07T05:16:51.045Z,9.95
2023-10-07T05:19:24.390Z,9.60
2023-10-07T05:22:15.581Z,10.18
2023-10-07T05:24:47.404Z,8.40
2023-10-07T05:27:15.319Z,6.63
2023-10-07T05:29:44.592Z,9.95
2023-10-07T05:32:11.634Z,9.05
2023-10-07T05:34:38.542Z,7.28
2023-10-07T05:37:12.169Z,8.30
2023-10-07T05:39:45.490Z,10.25
2023-10-07T05:42:15.118Z,9.88
2023-10-07T05:44:42.190Z,9.98
2023-10-07T05:47:10.682Z,9.50
2023-10-07T05:49:39.034Z,10.88
2023-10-07T05:52:06.544Z,9.95
2023-10-07T05:54:33.543Z,8.88
2023-10-07T05:57:03.429Z,8.18
2023-10-07T05:59:34.655Z,7.78
2023-10-07T06:02:08.023Z,7.85
2023-10-07T06:04:35.846Z,7.65
2023-10-07T06:07:02.796Z,8.40
2023-10-07T06:09:30.034Z,5.38
2023-10-07T06:12:00.793Z,8.50
2023-10-07T06:14:27.771Z,8.15
2023-10-07T06:16:57.195Z,5.82
2023-10-07T06:19:24.826Z,3.42
2023-10-07T06:21:57.847Z,5.22
2023-10-07T06:24:25.130Z,8.43
2023-10-07T06:26:55.090Z,7.65
2023-10-07T06:29:22.174Z,8.57
2023-10-07T06:32:18.940Z,8.25
2023-10-07T06:34:46.092Z,10.68
2023-10-07T06:37:12.852Z,5.63
2023-10-07T06:39:39.635Z,6.55
2023-10-07T06:42:07.427Z,12.02
2023-10-07T06:44:34.206Z,10.65
2023-10-07T06:47:03.911Z,8.88
2023-10-07T06:49:35.719Z,5.18
2023-10-07T06:52:04.735Z,9.38
2023-10-07T06:54:33.700Z,7.68
2023-10-07T06:57:03.076Z,10.07
2023-10-07T06:59:30.385Z,7.40
2023-10-07T07:01:58.908Z,11.23
2023-10-07T07:04:26.088Z,8.80
2023-10-07T07:07:11.487Z,6.32
2023-10-07T07:09:43.972Z,10.95
2023-10-07T07:12:13.319Z,10.02
2023-10-07T07:15:04.166Z,10.77
2023-10-07T07:17:31.640Z,13.07
2023-10-07T07:20:14.075Z,10.68
2023-10-07T07:22:46.963Z,8.55
2023-10-07T07:25:31.262Z,9.48
2023-10-07T07:28:01.612Z,10.17
2023-10-07T07:30:31.807Z,9.77
2023-10-07T07:33:23.930Z,11.98
2023-10-07T07:35:57.922Z,10.55
2023-10-07T07:38:31.228Z,11.25
2023-10-07T07:41:06.621Z,8.55
2023-10-07T07:43:35.148Z,11.60
2023-10-07T07:46:33.126Z,7.15
2023-10-07T07:49:09.905Z,6.75
2023-10-07T07:51:52.773Z,5.18
2023-10-07T07:54:19.728Z,9.52
2023-10-07T07:56:47.833Z,5.85
2023-10-07T07:59:14.924Z,6.18
2023-10-07T08:01:52.258Z,7.03
2023-10-07T08:04:20.037Z,7.22
2023-10-07T08:06:50.773Z,7.10
2023-10-07T08:09:20.978Z,6.80
2023-10-07T08:11:50.280Z,7.07
2023-10-07T08:14:18.711Z,9.68
2023-10-07T08:16:51.957Z,10.88
2023-10-07T08:19:25.429Z,9.60
2023-10-07T08:21:53.813Z,9.50
2023-10-07T08:24:21.708Z,7.28
2023-10-07T08:26:50.348Z,10.15
2023-10-07T08:29:41.437Z,7.88
2023-10-07T08:32:29.968Z,7.63
2023-10-07T08:35:00.717Z,9.30
2023-10-07T08:37:33.887Z,10.63
2023-10-07T08:40:12.440Z,11.13
2023-10-07T08:42:45.647Z,11.75
2023-10-07T08:45:24.540Z,11.80
2023-10-07T08:47:53.011Z,8.55
2023-10-07T08:50:26.088Z,7.53
2023-10-07T08:53:03.966Z,12.07
2023-10-07T08:55:32.745Z,11.00
2023-10-07T08:58:05.203Z,8.80
2023-10-07T09:00:35.008Z,10.88
2023-10-07T09:03:11.715Z,12.15
2023-10-07T09:05:38.808Z,9.32
2023-10-07T09:08:12.408Z,9.15
2023-10-07T09:10:49.561Z,9.77
2023-10-07T09:13:29.552Z,8.70
2023-10-07T09:16:00.433Z,5.32
2023-10-07T09:18:39.223Z,5.68
2023-10-07T09:21:23.498Z,6.55
2023-10-07T09:23:53.196Z,5.83
2023-10-07T09:26:23.197Z,7.13
2023-10-07T09:28:59.548Z,8.02
2023-10-07T09:31:31.314Z,7.13
2023-10-07T09:34:10.999Z,6.05
2023-10-07T09:36:47.646Z,6.03
2023-10-07T09:39:34.917Z,6.93
2023-10-07T09:42:06.247Z,5.15
2023-10-07T09:44:33.523Z,5.13
2023-10-07T09:47:14.163Z,5.85
2023-10-07T09:49:41.164Z,5.22
2023-10-07T09:52:18.547Z,4.55
2023-10-07T09:54:51.439Z,4.82
2023-10-07T09:57:43.656Z,4.38
2023-10-07T10:00:32.680Z,4.80
2023-10-07T10:03:13.525Z,4.43
2023-10-07T10:05:46.392Z,3.88
2023-10-07T10:08:31.879Z,4.97
2023-10-07T10:11:09.532Z,4.85
2023-10-07T10:13:42.236Z,5.43
2023-10-07T10:16:20.395Z,3.97
2023-10-07T10:19:12.437Z,4.50
2023-10-07T10:21:39.313Z,4.20
2023-10-07T10:24:06.234Z,4.72
2023-10-07T10:26:34.682Z,4.38
2023-10-07T10:29:05.657Z,4.82
2023-10-07T10:31:34.562Z,3.30
2023-10-07T10:34:06.878Z,4.15
2023-10-07T10:36:39.719Z,4.30
2023-10-07T10:42:03.653Z,4.22
2023-10-07T10:44:37.774Z,4.13
2023-10-07T10:47:05.978Z,3.88
2023-10-07T10:49:36.138Z,4.57
2023-10-07T10:52:04.009Z,5.38
2023-10-07T10:54:30.976Z,5.57
2023-10-07T10:56:59.474Z,4.20
2023-10-07T10:59:49.978Z,4.90
2023-10-07T11:02:19.113Z,3.83
2023-10-07T11:04:55.589Z,4.25
2023-10-07T11:07:26.215Z,4.40
2023-10-07T11:09:54.148Z,4.57
2023-10-07T11:12:24.264Z,6.60
2023-10-07T11:15:01.372Z,4.65
2023-10-07T11:17:29.065Z,4.60
2023-10-07T11:19:56.108Z,4.13
2023-10-07T11:22:23.975Z,5.43
2023-10-07T11:24:51.729Z,3.42
2023-10-07T11:27:19.316Z,3.38
2023-10-07T11:29:56.688Z,3.58
2023-10-07T11:32:30.894Z,4.60
2023-10-07T11:37:29.286Z,3.85
2023-10-07T11:39:57.114Z,5.10
2023-10-07T11:42:24.297Z,4.80
2023-10-07T11:44:58.314Z,3.72
2023-10-07T11:47:26.041Z,3.00
2023-10-07T11:49:53.601Z,3.08
2023-10-07T11:52:20.800Z,3.70
2023-10-07T11:54:48.380Z,4.57
2023-10-07T11:57:15.250Z,3.90
2023-10-07T11:59:45.712Z,4.32
2023-10-07T12:02:13.284Z,4.78
2023-10-07T12:04:41.168Z,4.35
2023-10-07T12:07:09.088Z,4.10
2023-10-07T12:09:38.366Z,4.35
2023-10-07T12:12:07.617Z,4.43
2023-10-07T12:14:34.580Z,4.55
2023-10-07T12:17:02.803Z,4.57
2023-10-07T12:19:31.880Z,4.38
2023-10-07T12:22:00.162Z,4.85
2023-10-07T12:26:56.521Z,4.43
2023-10-07T12:29:26.546Z,4.40
2023-10-07T12:31:53.460Z,4.40
2023-10-07T12:34:21.290Z,4.78
2023-10-07T12:36:49.028Z,4.45
2023-10-07T12:39:16.723Z,4.32
2023-10-07T12:41:43.750Z,4.40
2023-10-07T12:44:11.618Z,4.75
2023-10-07T12:46:39.773Z,4.05
2023-10-07T12:49:11.354Z,3.92
2023-10-07T12:51:43.357Z,4.85
2023-10-07T12:54:10.726Z,3.53
2023-10-07T12:56:44.672Z,4.32
2023-10-07T12:59:22.588Z,3.83
2023-10-07T13:01:52.110Z,3.65
2023-10-07T13:04:20.870Z,3.83
2023-10-07T13:06:50.255Z,4.38
2023-10-07T13:09:17.842Z,4.55
2023-10-07T13:11:46.956Z,3.67
2023-10-07T13:14:14.308Z,4.18
2023-10-07T13:16:46.749Z,3.95
2023-10-07T13:19:15.138Z,3.85
2023-10-07T13:21:42.933Z,5.22
2023-10-07T13:24:12.752Z,4.47
2023-10-07T13:26:40.008Z,4.22
2023-10-07T13:29:12.163Z,4.60
2023-10-07T13:31:39.827Z,4.85
2023-10-07T13:34:09.812Z,4.45
2023-10-07T13:36:42.370Z,4.57
2023-10-07T13:39:18.715Z,3.80
2023-10-07T13:41:46.301Z,5.20
2023-10-07T13:44:18.204Z,3.90
2023-10-07T13:46:46.373Z,3.58
2023-10-07T13:49:16.992Z,3.88
2023-10-07T13:51:45.779Z,4.88
2023-10-07T13:54:31.337Z,4.35
2023-10-07T13:57:03.703Z,3.95
2023-10-07T13:59:30.820Z,4.20
2023-10-07T14:01:59.709Z,4.10
2023-10-07T14:04:27.176Z,3.40
2023-10-07T14:07:01.810Z,4.00
2023-10-07T14:09:30.791Z,4.53
2023-10-07T14:11:58.031Z,4.13
2023-10-07T14:14:28.665Z,2.97
2023-10-07T14:17:00.578Z,3.10
2023-10-07T14:19:29.316Z,3.92
2023-10-07T14:21:56.135Z,4.35
2023-10-07T14:24:29.182Z,3.80
2023-10-07T14:26:57.400Z,4.97
2023-10-07T14:29:24.422Z,4.00
2023-10-07T14:31:53.146Z,3.38
2023-10-07T14:34:20.053Z,3.22
2023-10-07T14:36:47.175Z,3.70
2023-10-07T14:39:14.821Z,4.00
2023-10-07T14:41:44.503Z,4.60
2023-10-07T14:44:11.775Z,3.95
2023-10-07T14:46:45.829Z,3.20
2023-10-07T14:49:13.527Z,3.60
2023-10-07T14:51:40.651Z,3.63
2023-10-07T14:54:07.419Z,3.85
2023-10-07T14:56:34.430Z,4.43
2023-10-07T14:59:01.373Z,3.95
2023-10-07T15:01:29.343Z,3.60
2023-10-07T15:03:57.182Z,3.55
2023-10-07T15:06:24.357Z,4.00
2023-10-07T15:08:52.192Z,3.50
2023-10-07T15:11:23.474Z,3.58
2023-10-07T15:13:51.755Z,4.20
2023-10-07T15:16:19.319Z,4.35
2023-10-07T15:18:47.872Z,3.72
2023-10-07T15:21:15.860Z,4.13
2023-10-07T15:23:43.014Z,4.40
2023-10-07T15:26:14.456Z,3.53
2023-10-07T15:28:41.668Z,3.63
2023-10-07T15:31:09.599Z,3.55
2023-10-07T15:33:57.475Z,3.83
2023-10-07T15:36:25.226Z,4.53
2023-10-07T15:38:53.335Z,4.35
2023-10-07T15:41:20.935Z,4.45
2023-10-07T15:43:50.557Z,4.25
2023-10-07T15:46:18.433Z,3.78
2023-10-07T15:48:45.524Z,4.03
2023-10-07T15:51:15.022Z,4.43
2023-10-07T15:53:43.486Z,4.07
2023-10-07T15:56:19.358Z,3.75
2023-10-07T15:58:46.651Z,3.50
2023-10-07T16:01:14.422Z,4.03
2023-10-07T16:03:43.148Z,3.58
2023-10-07T16:06:13.319Z,4.20
2023-10-07T16:08:40.630Z,3.97
2023-10-07T16:11:11.777Z,2.85
2023-10-07T16:13:38.604Z,3.88
2023-10-07T16:16:08.094Z,4.00
2023-10-07T16:18:42.708Z,4.68
2023-10-07T16:21:13.494Z,4.20
2023-10-07T16:23:41.272Z,4.25
2023-10-07T16:26:09.576Z,3.83
2023-10-07T16:28:46.930Z,3.75
2023-10-07T16:31:14.519Z,3.83
2023-10-07T16:33:42.243Z,4.93
2023-10-07T16:36:09.580Z,4.38
2023-10-07T16:38:42.519Z,4.07
2023-10-07T16:41:13.775Z,4.22
2023-10-07T16:43:40.747Z,4.50
2023-10-07T16:46:07.698Z,3.80
2023-10-07T16:48:35.760Z,4.03
2023-10-07T16:51:06.952Z,4.53
2023-10-07T16:53:36.208Z,3.63
2023-10-07T16:56:05.762Z,3.80
2023-10-07T16:58:32.598Z,5.35
2023-10-07T17:00:59.985Z,4.70
2023-10-07T17:03:28.324Z,4.25
2023-10-07T17:05:59.781Z,4.70
2023-10-07T17:08:27.536Z,4.00
2023-10-07T17:10:57.555Z,4.90
2023-10-07T17:13:27.549Z,4.90
2023-10-07T17:15:57.080Z,4.40
2023-10-07T17:18:27.813Z,4.57
2023-10-07T17:20:55.895Z,4.45
2023-10-07T17:23:22.697Z,4.82
2023-10-07T17:25:49.966Z,5.00
2023-10-07T17:28:17.058Z,5.63
2023-10-07T17:30:48.697Z,4.60
2023-10-07T17:33:17.034Z,4.47
2023-10-07T17:35:44.972Z,4.88
2023-10-07T17:38:12.620Z,6.15
2023-10-07T17:40:40.987Z,3.67
2023-10-07T17:43:10.341Z,4.75
2023-10-07T17:45:38.644Z,5.22
2023-10-07T17:48:07.492Z,5.13
2023-10-07T17:50:34.768Z,5.22
2023-10-07T17:53:03.494Z,5.13
2023-10-07T17:55:30.667Z,5.25
2023-10-07T17:57:57.789Z,4.68
2023-10-07T18:00:28.122Z,4.60
2023-10-07T18:02:56.522Z,5.32
2023-10-07T18:05:24.656Z,4.28
2023-10-07T18:07:52.585Z,3.92
2023-10-07T18:10:23.934Z,4.20
2023-10-07T18:12:52.277Z,4.82
2023-10-07T18:15:19.794Z,3.60
2023-10-07T18:17:47.553Z,3.92
2023-10-07T18:20:15.035Z,3.83
2023-10-07T18:23:01.717Z,4.13
2023-10-07T18:25:28.574Z,3.90
2023-10-07T18:27:55.342Z,4.97
2023-10-07T18:30:22.159Z,4.60
2023-10-07T18:32:49.233Z,4.60
2023-10-07T18:35:16.304Z,4.45
2023-10-07T18:37:43.147Z,3.58
2023-10-07T18:40:10.567Z,3.47
2023-10-07T18:42:38.025Z,4.57
2023-10-07T18:45:06.481Z,3.95
2023-10-07T18:47:33.877Z,4.50
2023-10-07T18:50:00.998Z,5.13
2023-10-07T18:52:28.984Z,4.25
2023-10-07T18:54:56.771Z,3.75
2023-10-07T18:57:23.571Z,4.50
2023-10-07T18:59:50.416Z,5.13
2023-10-07T19:02:17.453Z,3.85
2023-10-07T19:04:44.421Z,4.22
2023-10-07T19:07:11.721Z,4.28
2023-10-07T19:09:38.470Z,3.55
2023-10-07T19:12:06.303Z,4.68
2023-10-07T19:14:33.678Z,4.28
2023-10-07T19:17:01.546Z,4.55
2023-10-07T19:19:28.612Z,3.88
2023-10-07T19:21:55.569Z,4.40
2023-10-07T19:24:24.474Z,4.22
2023-10-07T19:26:51.845Z,4.25
2023-10-07T19:29:18.856Z,4.35
2023-10-07T19:31:45.717Z,4.20
2023-10-07T19:34:12.632Z,3.58
2023-10-07T19:36:39.343Z,4.88
2023-10-07T19:39:06.291Z,4.82
2023-10-07T19:41:33.217Z,4.55
2023-10-07T19:44:00.353Z,5.10
2023-10-07T19:46:27.377Z,4.30
2023-10-07T19:48:54.306Z,4.40
2023-10-07T19:51:21.190Z,4.40
2023-10-07T19:53:48.005Z,4.00
2023-10-07T19:56:14.855Z,3.90
2023-10-07T19:58:42.610Z,5.35
2023-10-07T20:01:09.523Z,3.92
2023-10-07T20:03:36.613Z,4.60
2023-10-07T20:06:11.163Z,4.20
2023-10-07T20:08:40.816Z,4.22
2023-10-07T20:11:07.888Z,3.90
2023-10-07T20:13:35.426Z,4.00
2023-10-07T20:16:03.763Z,4.85
2023-10-07T20:18:30.711Z,3.80
2023-10-07T20:20:58.618Z,3.80
2023-10-07T20:23:26.325Z,4.80
2023-10-07T20:26:08.121Z,3.88
2023-10-07T20:28:37.171Z,3.53
2023-10-07T20:31:07.558Z,4.22
2023-10-07T20:33:35.012Z,4.50
2023-10-07T20:36:02.166Z,4.25
2023-10-07T20:38:29.148Z,3.65
2023-10-07T20:40:58.466Z,3.65
2023-10-07T20:43:25.399Z,4.00
2023-10-07T20:46:03.186Z,4.20
2023-10-07T20:48:31.378Z,3.65
2023-10-07T20:51:05.602Z,4.20
2023-10-07T20:53:34.144Z,3.35
2023-10-07T20:56:01.719Z,3.78
2023-10-07T20:58:29.453Z,4.47
2023-10-07T21:00:56.249Z,4.63
2023-10-07T21:03:23.264Z,4.38
2023-10-07T21:05:51.023Z,4.15
2023-10-07T21:08:18.177Z,4.65
2023-10-07T21:10:45.658Z,3.38
2023-10-07T21:13:13.287Z,3.63
2023-10-07T21:15:42.896Z,3.55
2023-10-07T21:18:09.948Z,4.00
2023-10-07T21:20:41.892Z,3.67
2023-10-07T21:23:11.928Z,4.53
2023-10-07T21:25:44.531Z,3.85
2023-10-07T21:28:12.590Z,3.45
2023-10-07T21:30:40.317Z,4.63
2023-10-07T21:33:08.738Z,3.95
2023-10-07T21:35:37.453Z,3.90
2023-10-07T21:38:05.259Z,4.13
2023-10-07T21:40:32.998Z,4.47
2023-10-07T21:43:03.806Z,3.47
2023-10-07T21:45:31.629Z,3.60
2023-10-07T21:47:58.817Z,4.78
2023-10-07T21:50:27.782Z,4.22
2023-10-07T21:52:55.450Z,3.63
2023-10-07T21:55:26.238Z,4.10
2023-10-07T21:57:53.448Z,4.15
2023-10-07T22:00:27.098Z,4.55
2023-10-07T22:02:58.266Z,4.22
2023-10-07T22:05:29.092Z,4.93
2023-10-07T22:07:59.941Z,4.10
2023-10-07T22:10:34.574Z,4.95
2023-10-07T22:13:02.495Z,5.28
2023-10-07T22:15:29.363Z,3.83
2023-10-07T22:17:57.414Z,4.22
2023-10-07T22:20:24.467Z,4.05
2023-10-07T22:22:52.471Z,5.15
2023-10-07T22:25:19.695Z,3.85
2023-10-07T22:27:47.721Z,4.47
2023-10-07T22:30:18.835Z,4.75
2023-10-07T22:32:47.185Z,4.28
2023-10-07T22:35:23.716Z,4.75
2023-10-07T22:38:10.016Z,4.63
2023-10-07T22:40:51.244Z,4.68
2023-10-07T22:43:19.106Z,4.22
2023-10-07T22:45:50.083Z,4.18
2023-10-07T22:48:22.361Z,4.22
2023-10-07T22:51:10.396Z,4.68
2023-10-07T22:53:42.433Z,4.28
2023-10-07T22:56:20.942Z,4.90
2023-10-07T22:58:49.966Z,4.15
2023-10-07T23:01:50.529Z,6.78
2023-10-07T23:04:22.627Z,4.43
2023-10-07T23:06:57.569Z,4.75
2023-10-07T23:09:38.471Z,4.80
2023-10-07T23:12:16.830Z,5.82
2023-10-07T23:14:48.523Z,5.35
2023-10-07T23:17:32.191Z,4.60
2023-10-07T23:20:20.686Z,3.97
2023-10-07T23:22:47.608Z,4.95
2023-10-07T23:25:15.145Z,5.18
2023-10-07T23:27:45.889Z,4.70
2023-10-07T23:30:30.140Z,5.00
2023-10-07T23:32:59.243Z,4.53
2023-10-07T23:35:30.581Z,6.45
2023-10-07T23:38:19.258Z,5.30
2023-10-07T23:40:53.124Z,5.03
2023-10-07T23:43:21.356Z,5.25
2023-10-07T23:45:52.597Z,4.90
2023-10-07T23:48:20.637Z,5.25
2023-10-07T23:50:49.904Z,4.45
2023-10-07T23:53:26.509Z,5.63
2023-10-07T23:56:06.727Z,5.53
2023-10-07T23:58:44.283Z,5.47
